Time;durP1;ratioP1;P1;durP2;ratioP2;P2;SDS_P1;SDS_P2;PMS_P1;PMS_P2;Temp;Humidity;BMP_temperature;BMP_pressure;BME280_temperature;BME280_humidity;BME280_pressure;Samples;Min_cycle;Max_cycle;Signal;HPM_P1;HPM_P2
2020/12/08 06:08:43;;;;;;;35.03;15.80;;;;;;;-6.17;88.69;99371.37;1736372;80;24063;-54
2020/12/08 06:11:15;;;;;;;32.30;15.30;;;;;;;-6.13;88.72;99377.16;1707787;81;21201;-60
2020/12/08 06:13:53;;;;;;;31.33;14.63;;;;;;;-6.10;88.67;99375.68;1751635;81;21227;-55
2020/12/08 06:16:25;;;;;;;31.90;14.90;;;;;;;-6.10;88.45;99370.55;1725961;82;21119;-53
2020/12/08 06:18:54;;;;;;;29.97;14.77;;;;;;;-6.09;88.61;99377.33;1762499;80;21188;-50
2020/12/08 06:21:29;;;;;;;34.93;15.37;;;;;;;-6.06;88.66;99379.73;1748997;81;21160;-51
2020/12/08 06:24:00;;;;;;;31.83;15.20;;;;;;;-6.03;89.01;99377.78;1736844;81;21189;-51
2020/12/08 06:26:37;;;;;;;30.27;15.07;;;;;;;-5.95;89.13;99380.74;1751626;82;21197;-57
2020/12/08 06:29:09;;;;;;;30.93;14.63;;;;;;;-5.89;88.62;99384.66;1751892;82;21545;-56
2020/12/08 06:31:49;;;;;;;33.30;15.93;;;;;;;-5.90;88.32;99379.98;1736135;82;21372;-63
2020/12/08 06:34:26;;;;;;;29.70;14.00;;;;;;;-5.92;88.24;99372.02;1721445;83;21933;-54
2020/12/08 06:36:55;;;;;;;33.60;15.33;;;;;;;-5.91;88.06;99374.95;1693707;83;21320;-53
2020/12/08 06:39:24;;;;;;;34.43;15.77;;;;;;;-5.90;87.93;99367.15;1720789;83;21350;-60
2020/12/08 06:41:53;;;;;;;34.97;15.33;;;;;;;-5.89;87.76;99377.78;1721315;83;21796;-59
2020/12/08 06:44:23;;;;;;;29.90;12.87;;;;;;;-5.92;87.74;99379.72;1765748;81;21572;-59
2020/12/08 06:47:01;;;;;;;28.73;14.03;;;;;;;-5.91;87.84;99358.27;1721223;82;21331;-59
2020/12/08 06:49:38;;;;;;;33.90;16.17;;;;;;;-5.91;87.28;99368.53;1694855;83;21153;-58
2020/12/08 06:52:10;;;;;;;30.87;14.53;;;;;;;-5.97;87.46;99365.88;1661520;85;21316;-60
2020/12/08 06:54:40;;;;;;;43.97;21.03;;;;;;;-5.97;87.84;99384.30;1671955;84;21161;-59
2020/12/08 06:57:09;;;;;;;41.37;19.20;;;;;;;-6.01;87.67;99380.28;1735515;83;21169;-60
2020/12/08 06:59:38;;;;;;;33.23;16.00;;;;;;;-6.06;88.00;99372.84;1729884;82;21214;-64
2020/12/08 07:02:10;;;;;;;33.47;15.33;;;;;;;-6.06;87.99;99376.70;1690143;83;21209;-60
2020/12/08 07:04:39;;;;;;;31.87;15.75;;;;;;;-6.10;88.26;99383.37;1689028;83;21176;-63
2020/12/08 07:07:08;;;;;;;36.33;16.53;;;;;;;-6.13;88.34;99368.17;1723688;82;21209;-58
2020/12/08 07:09:37;;;;;;;42.20;17.13;;;;;;;-6.16;88.81;99375.58;1731749;81;21141;-63
2020/12/08 07:12:07;;;;;;;35.40;15.20;;;;;;;-6.12;89.05;99386.05;1735940;83;21160;-63
2020/12/08 07:14:38;;;;;;;30.75;15.00;;;;;;;-6.09;88.71;99387.12;1735862;81;21330;-54
2020/12/08 07:17:07;;;;;;;31.60;15.83;;;;;;;-6.07;88.80;99385.78;1755003;81;21259;-63
2020/12/08 07:19:36;;;;;;;31.13;14.83;;;;;;;-6.03;88.95;99384.20;1754008;81;21205;-64
2020/12/08 07:22:08;;;;;;;31.27;14.80;;;;;;;-5.92;88.84;99392.10;1719972;81;21240;-56
2020/12/08 07:24:43;;;;;;;39.80;18.52;;;;;;;-5.86;88.39;99389.59;1681633;83;21207;-55
2020/12/08 07:27:12;;;;;;;35.97;15.47;;;;;;;-5.84;88.20;99399.34;1735969;83;21176;-58
2020/12/08 07:29:42;;;;;;;37.17;18.13;;;;;;;-5.79;88.52;99394.76;1715463;82;21191;-60
2020/12/08 07:32:11;;;;;;;31.00;14.80;;;;;;;-5.71;88.34;99396.40;1736151;82;21338;-56
2020/12/08 07:34:51;;;;;;;38.70;17.43;;;;;;;-5.62;87.91;99390.72;1742208;81;21205;-57
2020/12/08 07:37:21;;;;;;;37.85;16.15;;;;;;;-5.56;87.44;99393.38;1745801;81;21165;-61
2020/12/08 07:39:53;;;;;;;32.20;15.30;;;;;;;-5.51;86.91;99393.08;1734729;81;21177;-61
2020/12/08 07:42:22;;;;;;;36.77;17.13;;;;;;;-5.50;86.75;99397.32;1738071;81;21368;-59
2020/12/08 07:44:58;;;;;;;34.73;14.47;;;;;;;-5.49;86.57;99395.11;1727159;83;21139;-62
2020/12/08 07:47:27;;;;;;;36.07;15.67;;;;;;;-5.50;86.41;99385.77;1741853;82;21171;-59
2020/12/08 07:49:57;;;;;;;38.67;17.40;;;;;;;-5.55;86.22;99390.34;1756144;82;21610;-58
2020/12/08 07:52:27;;;;;;;35.07;16.50;;;;;;;-5.65;86.71;99397.77;1727518;80;21190;-57
2020/12/08 07:54:56;;;;;;;38.07;17.83;;;;;;;-5.65;86.95;99390.06;1765889;80;21592;-56
2020/12/08 07:57:26;;;;;;;36.77;17.43;;;;;;;-5.67;86.92;99394.02;1764066;80;21597;-58
2020/12/08 07:59:55;;;;;;;31.47;14.50;;;;;;;-5.68;87.16;99387.67;1763876;80;21157;-50
2020/12/08 08:02:25;;;;;;;31.20;15.30;;;;;;;-5.68;87.39;99385.95;1761244;81;21531;-58
2020/12/08 08:04:54;;;;;;;34.80;16.30;;;;;;;-5.69;87.39;99393.73;1754229;80;21190;-58
2020/12/08 08:07:23;;;;;;;35.73;16.43;;;;;;;-5.72;87.62;99396.50;1753591;80;21720;-57
2020/12/08 08:09:55;;;;;;;34.70;15.58;;;;;;;-5.68;87.88;99393.66;1733464;82;21307;-58
2020/12/08 08:12:29;;;;;;;35.07;16.83;;;;;;;-5.66;87.60;99394.84;1770868;79;21176;-58
2020/12/08 08:15:01;;;;;;;33.80;15.50;;;;;;;-5.70;88.08;99385.20;1758598;79;21159;-59
2020/12/08 08:17:34;;;;;;;34.13;17.17;;;;;;;-5.62;88.27;99381.73;1744534;82;21119;-63
2020/12/08 08:20:04;;;;;;;40.23;16.63;;;;;;;-5.55;88.44;99374.47;1748620;82;21559;-56
2020/12/08 08:22:35;;;;;;;37.40;15.87;;;;;;;-5.49;88.47;99361.25;1748940;82;21212;-48
2020/12/08 08:25:08;;;;;;;36.97;16.87;;;;;;;-5.42;87.35;99352.23;1749571;81;21183;-60
2020/12/08 08:27:37;;;;;;;32.90;15.67;;;;;;;-5.50;87.61;99360.89;1721068;82;21217;-60
2020/12/08 08:30:10;;;;;;;37.97;16.37;;;;;;;-5.52;88.01;99363.17;1737005;82;21180;-57
2020/12/08 08:32:38;;;;;;;32.53;15.58;;;;;;;-5.52;88.09;99367.84;1776187;80;21580;-59
2020/12/08 08:35:08;;;;;;;32.00;16.03;;;;;;;-5.50;88.29;99371.17;1751015;82;21353;-59
2020/12/08 08:37:37;;;;;;;35.80;16.13;;;;;;;-5.43;88.11;99364.73;1750904;81;21693;-60
2020/12/08 08:40:07;;;;;;;33.67;16.40;;;;;;;-5.34;87.29;99364.14;1761064;80;21172;-65
2020/12/08 08:42:38;;;;;;;33.97;15.20;;;;;;;-5.31;86.99;99368.75;1749578;81;21196;-62
2020/12/08 08:45:08;;;;;;;40.08;17.17;;;;;;;-5.25;86.40;99364.05;1753260;81;21345;-58
2020/12/08 08:47:40;;;;;;;33.83;14.77;;;;;;;-5.31;84.62;99367.00;1716749;82;21315;-61
2020/12/08 08:50:13;;;;;;;33.33;17.03;;;;;;;-5.43;84.53;99358.77;1742782;82;21415;-60
2020/12/08 08:52:49;;;;;;;38.50;18.47;;;;;;;-5.52;85.21;99372.16;1740559;82;21570;-64
2020/12/08 08:55:19;;;;;;;35.17;16.47;;;;;;;-5.58;85.57;99359.23;1749899;82;21120;-59
2020/12/08 08:57:48;;;;;;;32.57;14.97;;;;;;;-5.53;86.18;99370.05;1720972;82;21165;-60
2020/12/08 09:00:42;;;;;;;31.82;15.65;;;;;;;-5.42;85.74;99369.41;1743400;82;21224;-63
2020/12/08 09:03:58;;;;;;;32.57;14.50;;;;;;;-5.41;86.00;99381.33;1719457;82;21162;-57
2020/12/08 09:06:38;;;;;;;34.07;15.57;;;;;;;-5.41;84.72;99372.33;1719141;83;21212;-60
2020/12/08 09:09:16;;;;;;;35.93;17.40;;;;;;;-5.43;85.15;99366.48;1743775;80;21192;-59
2020/12/08 09:11:49;;;;;;;31.20;14.10;;;;;;;-5.40;85.52;99363.70;1721679;82;21185;-60
2020/12/08 09:14:23;;;;;;;34.57;16.33;;;;;;;-5.31;85.21;99361.03;1761471;81;21245;-61
2020/12/08 09:16:55;;;;;;;34.30;16.57;;;;;;;-5.30;84.32;99369.11;1739685;81;21163;-63
2020/12/08 09:19:25;;;;;;;34.90;15.67;;;;;;;-5.35;84.44;99366.35;1751048;81;21302;-64
2020/12/08 09:21:55;;;;;;;38.63;15.20;;;;;;;-5.35;84.54;99359.11;1719248;83;21170;-60
2020/12/08 09:24:25;;;;;;;33.95;15.03;;;;;;;-5.34;83.98;99360.75;1741966;82;21127;-63
2020/12/08 09:26:54;;;;;;;32.90;15.23;;;;;;;-5.36;84.13;99364.70;1742535;82;21206;-61
2020/12/08 09:29:24;;;;;;;30.57;14.17;;;;;;;-5.34;84.36;99351.76;1742591;80;21156;-62
2020/12/08 09:31:57;;;;;;;31.57;14.13;;;;;;;-5.34;84.09;99360.28;1742650;82;21322;-59
2020/12/08 09:34:29;;;;;;;34.00;15.87;;;;;;;-5.40;83.97;99353.42;1743546;82;21289;-68
2020/12/08 09:37:14;;;;;;;37.77;16.83;;;;;;;-5.41;84.42;99351.31;1692567;82;21161;-60
2020/12/08 09:39:47;;;;;;;36.37;15.93;;;;;;;-5.31;84.82;99346.44;1715311;83;21166;-60
2020/12/08 09:42:29;;;;;;;36.33;16.53;;;;;;;-5.21;84.15;99341.09;1715437;83;21156;-63
2020/12/08 09:45:24;;;;;;;30.87;14.13;;;;;;;-5.21;83.29;99335.13;1691421;84;21741;-62
2020/12/08 09:48:34;;;;;;;30.10;14.70;;;;;;;-5.23;82.46;99342.92;1700268;83;21219;-61
2020/12/08 09:51:20;;;;;;;29.50;14.50;;;;;;;-5.23;83.01;99353.20;1741325;81;21181;-58
2020/12/08 09:54:06;;;;;;;31.00;15.50;;;;;;;-5.20;83.38;99329.06;1757363;81;21368;-60
2020/12/08 09:56:54;;;;;;;35.10;15.90;;;;;;;-5.21;82.81;99342.38;1702670;83;21173;-60
2020/12/08 09:59:37;;;;;;;32.17;15.88;;;;;;;-5.16;83.08;99342.92;1736227;80;21133;-59
2020/12/08 10:02:19;;;;;;;34.10;15.73;;;;;;;-5.10;81.42;99344.28;1754002;81;21671;-57
2020/12/08 10:04:47;;;;;;;38.50;17.90;;;;;;;-5.15;80.84;99328.32;1776759;79;21223;-58
2020/12/08 10:07:18;;;;;;;31.67;14.20;;;;;;;-5.21;81.01;99333.38;1780501;80;21367;-62
2020/12/08 10:09:48;;;;;;;34.35;15.88;;;;;;;-5.20;81.09;99344.48;1770997;80;21199;-62
2020/12/08 10:12:17;;;;;;;30.83;14.07;;;;;;;-5.24;81.13;99337.87;1740973;82;21791;-62
2020/12/08 10:14:47;;;;;;;30.93;12.43;;;;;;;-5.23;81.10;99333.09;1740592;81;21284;-60
2020/12/08 10:17:16;;;;;;;27.93;13.13;;;;;;;-5.22;80.87;99334.31;1741062;82;21288;-61
2020/12/08 10:19:46;;;;;;;30.23;15.00;;;;;;;-5.25;81.04;99338.80;1720568;82;21384;-63
2020/12/08 10:22:16;;;;;;;27.93;13.70;;;;;;;-5.32;81.11;99337.09;1741254;82;21371;-62
2020/12/08 10:24:45;;;;;;;30.60;13.90;;;;;;;-5.34;81.56;99337.16;1740961;82;21546;-63
2020/12/08 10:27:15;;;;;;;30.27;13.90;;;;;;;-5.34;82.16;99333.30;1710703;81;21598;-63
2020/12/08 10:29:45;;;;;;;29.03;14.23;;;;;;;-5.30;82.29;99339.55;1744327;80;21607;-61
2020/12/08 10:32:15;;;;;;;25.57;12.47;;;;;;;-5.26;82.34;99348.73;1760572;81;21620;-59
2020/12/08 10:34:44;;;;;;;29.23;14.17;;;;;;;-5.25;82.24;99340.09;1766870;81;21129;-60
2020/12/08 10:37:13;;;;;;;37.03;15.60;;;;;;;-5.21;82.42;99341.09;1728221;83;21209;-62
2020/12/08 10:39:43;;;;;;;34.13;14.77;;;;;;;-5.11;82.47;99343.89;1705839;83;21161;-59
2020/12/08 10:42:12;;;;;;;30.20;14.23;;;;;;;-5.01;81.50;99339.83;1702532;84;21166;-58
2020/12/08 10:44:43;;;;;;;32.58;14.87;;;;;;;-4.98;80.39;99340.92;1703770;84;21293;-59
2020/12/08 10:47:12;;;;;;;32.80;15.17;;;;;;;-4.98;80.21;99353.78;1711995;83;21296;-58
2020/12/08 10:49:41;;;;;;;31.30;14.50;;;;;;;-4.93;80.08;99344.47;1709309;81;21356;-62
2020/12/08 10:52:11;;;;;;;33.53;14.50;;;;;;;-4.88;79.48;99343.25;1714920;82;21157;-64
2020/12/08 10:54:40;;;;;;;29.23;14.67;;;;;;;-4.88;79.28;99345.83;1704631;83;21241;-61
2020/12/08 10:57:09;;;;;;;30.03;14.53;;;;;;;-4.88;79.02;99357.39;1702082;84;21359;-62
2020/12/08 10:59:39;;;;;;;32.17;15.20;;;;;;;-4.91;78.58;99347.32;1701967;84;21219;-64
2020/12/08 11:02:09;;;;;;;28.07;14.10;;;;;;;-4.94;78.97;99356.50;1691430;83;21751;-61
2020/12/08 11:04:38;;;;;;;29.83;13.90;;;;;;;-4.96;78.62;99358.83;1751939;82;21167;-60
2020/12/08 11:07:07;;;;;;;31.80;14.70;;;;;;;-5.04;78.96;99350.78;1745383;82;21175;-62
2020/12/08 11:09:37;;;;;;;34.27;14.60;;;;;;;-5.08;79.15;99357.85;1745867;82;21168;-60
2020/12/08 11:12:07;;;;;;;29.02;13.50;;;;;;;-5.10;78.95;99350.25;1712655;82;21153;-57
2020/12/08 11:14:36;;;;;;;31.23;15.50;;;;;;;-5.10;78.55;99345.56;1737306;81;21335;-59
2020/12/08 11:17:06;;;;;;;31.20;14.80;;;;;;;-5.10;78.30;99343.81;1714922;84;21179;-60
2020/12/08 11:19:37;;;;;;;28.75;14.13;;;;;;;-5.08;78.51;99345.00;1715395;84;21200;-59
2020/12/08 11:22:07;;;;;;;29.53;15.00;;;;;;;-5.05;78.44;99343.97;1716713;81;21634;-56
2020/12/08 11:24:41;;;;;;;31.23;13.83;;;;;;;-5.02;78.54;99336.89;1741904;81;21164;-59
2020/12/08 11:27:17;;;;;;;29.80;14.77;;;;;;;-4.95;78.74;99341.18;1745980;82;21333;-60
2020/12/08 11:29:48;;;;;;;26.60;13.33;;;;;;;-4.89;78.13;99350.61;1745704;82;21143;-55
2020/12/08 11:32:18;;;;;;;31.07;14.03;;;;;;;-4.88;77.24;99348.86;1746517;80;21622;-57
2020/12/08 11:34:48;;;;;;;26.03;13.20;;;;;;;-4.96;77.47;99333.11;1746509;82;21221;-54
2020/12/08 11:37:18;;;;;;;28.87;13.73;;;;;;;-5.00;77.84;99346.61;1746208;81;21211;-53
2020/12/08 11:39:53;;;;;;;33.77;15.47;;;;;;;-4.99;78.16;99339.25;1710887;82;21173;-54
2020/12/08 11:42:29;;;;;;;30.85;14.47;;;;;;;-5.00;77.90;99335.50;1715896;82;21260;-57
2020/12/08 11:44:59;;;;;;;29.87;13.55;;;;;;;-5.03;77.97;99340.86;1745270;82;21571;-58
2020/12/08 11:47:29;;;;;;;34.27;15.77;;;;;;;-5.08;78.41;99327.00;1747174;82;21857;-61
2020/12/08 11:49:59;;;;;;;30.20;13.60;;;;;;;-5.09;78.77;99334.36;1746039;82;21203;-60
2020/12/08 11:52:29;;;;;;;30.37;13.83;;;;;;;-5.03;78.93;99329.29;1739980;81;21717;-57
2020/12/08 11:54:58;;;;;;;26.23;13.07;;;;;;;-5.00;78.40;99327.33;1730159;81;21327;-59
2020/12/08 11:57:28;;;;;;;27.67;12.90;;;;;;;-4.98;78.17;99337.53;1733884;82;21190;-62
2020/12/08 11:59:57;;;;;;;31.17;14.43;;;;;;;-4.96;78.20;99330.54;1730718;83;21624;-59
2020/12/08 12:02:27;;;;;;;33.97;14.93;;;;;;;-4.93;78.07;99341.47;1704228;81;21301;-62
2020/12/08 12:04:56;;;;;;;28.87;14.13;;;;;;;-4.89;78.04;99341.61;1738230;81;21595;-61
2020/12/08 12:07:26;;;;;;;30.53;13.57;;;;;;;-4.82;77.85;99345.45;1740615;81;21213;-60
2020/12/08 12:09:55;;;;;;;31.90;15.03;;;;;;;-4.78;77.48;99354.25;1743644;81;21185;-62
2020/12/08 12:12:24;;;;;;;29.67;13.77;;;;;;;-4.80;77.61;99338.92;1744671;81;21549;-56
2020/12/08 12:14:53;;;;;;;27.20;12.93;;;;;;;-4.77;77.51;99349.00;1746509;81;21717;-60
2020/12/08 12:17:23;;;;;;;27.23;13.07;;;;;;;-4.74;77.18;99348.81;1750583;82;21308;-59
2020/12/08 12:19:52;;;;;;;32.47;14.87;;;;;;;-4.76;77.05;99355.78;1767412;80;21145;-58
2020/12/08 12:22:23;;;;;;;28.50;11.60;;;;;;;-4.73;77.29;99347.06;1759784;80;21127;-58
2020/12/08 12:27:43;;;;;;;29.27;13.53;;;;;;;-4.65;76.56;99359.78;1749513;82;21354;-57
2020/12/08 12:30:15;;;;;;;30.50;14.30;;;;;;;-4.65;76.73;99348.20;1750520;82;21198;-57
2020/12/08 12:32:47;;;;;;;28.43;13.70;;;;;;;-4.69;76.70;99360.10;1745460;80;21162;-57
2020/12/08 12:35:25;;;;;;;30.30;15.83;;;;;;;-4.71;77.16;99357.60;1750887;82;21144;-63
2020/12/08 12:37:55;;;;;;;29.47;12.87;;;;;;;-4.66;77.31;99357.31;1761385;81;21666;-62
2020/12/08 12:40:24;;;;;;;25.63;11.17;;;;;;;-4.72;77.35;99352.56;1719851;83;21219;-62
2020/12/08 12:42:55;;;;;;;26.95;12.23;;;;;;;-4.85;78.32;99360.25;1742934;82;21265;-58
2020/12/08 12:45:24;;;;;;;26.80;12.40;;;;;;;-4.85;78.32;99360.25;1719951;83;21597;-59
2020/12/08 12:47:54;;;;;;;27.77;12.33;;;;;;;-4.86;78.77;99368.43;1737629;82;21607;-57
2020/12/08 12:50:24;;;;;;;25.43;11.40;;;;;;;-4.81;78.76;99366.86;1737824;82;21167;-59
2020/12/08 12:52:53;;;;;;;25.17;11.07;;;;;;;-4.83;78.85;99377.69;1741605;81;21158;-64
2020/12/08 12:55:24;;;;;;;26.70;11.67;;;;;;;-4.89;78.88;99376.33;1742855;82;21218;-65
2020/12/08 12:57:56;;;;;;;25.43;11.28;;;;;;;-4.94;79.13;99374.50;1744935;82;21269;-63
2020/12/08 13:00:32;;;;;;;24.87;12.03;;;;;;;-4.97;79.26;99382.89;1735779;82;21160;-61
2020/12/08 13:03:06;;;;;;;27.07;12.47;;;;;;;-4.99;79.36;99378.29;1749390;81;21169;-63
2020/12/08 13:05:35;;;;;;;25.60;11.67;;;;;;;-4.99;79.38;99379.57;1750397;81;21321;-58
2020/12/08 13:08:14;;;;;;;26.23;11.70;;;;;;;-4.96;79.72;99385.36;1817481;79;23061;-69
2020/12/08 13:10:57;;;;;;;24.70;11.33;;;;;;;-4.99;79.87;99390.68;1788518;80;21182;-60
2020/12/08 13:13:36;;;;;;;27.13;12.03;;;;;;;-4.97;80.01;99385.00;1778192;80;21134;-60
2020/12/08 13:16:17;;;;;;;29.97;12.00;;;;;;;-4.96;79.83;99393.53;1788329;80;21178;-59
2020/12/08 13:18:59;;;;;;;28.70;12.90;;;;;;;-4.93;79.97;99393.33;1777193;80;21170;-59
2020/12/08 13:21:48;;;;;;;25.73;11.87;;;;;;;-4.94;79.78;99386.54;1784377;80;21181;-56
2020/12/08 13:24:21;;;;;;;26.60;11.67;;;;;;;-4.89;80.13;99381.94;1721357;83;21213;-53
2020/12/08 13:26:55;;;;;;;24.97;12.07;;;;;;;-4.89;79.78;99392.22;1708549;83;21311;-59
2020/12/08 13:29:51;;;;;;;28.13;13.60;;;;;;;-4.92;79.71;99390.68;1735332;81;21177;-60
2020/12/08 13:32:36;;;;;;;31.17;14.23;;;;;;;-4.94;79.95;99396.36;1720759;82;21367;-56
2020/12/08 13:35:33;;;;;;;28.43;13.70;;;;;;;-4.96;80.23;99395.64;1705597;83;21205;-55
2020/12/08 13:38:16;;;;;;;29.53;13.53;;;;;;;-4.94;80.26;99389.93;1823492;77;23067;-59
2020/12/08 13:40:50;;;;;;;26.87;12.87;;;;;;;-4.98;80.53;99399.25;1760645;81;21644;-59
2020/12/08 13:43:50;;;;;;;25.33;11.40;;;;;;;-4.97;80.45;99403.00;1734352;81;21609;-65
2020/12/08 13:46:22;;;;;;;24.37;10.13;;;;;;;-4.98;80.17;99405.21;1710704;82;21368;-59
2020/12/08 13:48:51;;;;;;;30.35;14.13;;;;;;;-4.99;80.10;99406.57;1739522;82;21174;-66
2020/12/08 13:51:22;;;;;;;29.77;14.47;;;;;;;-5.00;80.25;99409.61;1762819;81;21279;-59
2020/12/08 13:53:51;;;;;;;29.80;13.83;;;;;;;-4.97;80.40;99406.03;1742200;81;21160;-62
2020/12/08 13:56:21;;;;;;;34.60;15.40;;;;;;;-4.94;80.19;99400.69;1739358;82;21136;-64
2020/12/08 13:58:52;;;;;;;31.70;14.37;;;;;;;-4.96;80.06;99399.50;1740202;81;21609;-57
2020/12/08 14:01:22;;;;;;;32.60;15.73;;;;;;;-4.97;80.31;99395.28;1739460;81;21201;-63
2020/12/08 14:03:52;;;;;;;31.30;14.00;;;;;;;-4.96;80.66;99394.36;1750522;81;21173;-64
2020/12/08 14:06:25;;;;;;;26.90;12.47;;;;;;;-4.87;80.58;99397.65;1730648;82;21201;-60
2020/12/08 14:08:55;;;;;;;33.98;16.30;;;;;;;-4.83;80.40;99394.41;1719074;81;21188;-63
2020/12/08 14:11:26;;;;;;;31.03;13.80;;;;;;;-4.78;80.40;99387.69;1742856;81;21597;-67
2020/12/08 14:14:07;;;;;;;29.00;12.40;;;;;;;-4.75;79.95;99405.05;1791118;78;21354;-62
2020/12/08 14:16:50;;;;;;;32.97;14.80;;;;;;;-4.81;79.78;99395.16;1772690;79;21146;-62
2020/12/08 14:19:29;;;;;;;30.97;14.50;;;;;;;-4.85;80.34;99400.94;1774486;81;21557;-67
2020/12/08 14:22:03;;;;;;;31.13;13.70;;;;;;;-4.76;80.40;99396.12;1749078;81;21209;-63
2020/12/08 14:24:37;;;;;;;30.77;13.10;;;;;;;-4.74;79.85;99404.58;1721978;82;21637;-63
2020/12/08 14:27:08;;;;;;;30.47;13.67;;;;;;;-4.78;79.94;99411.66;1744666;81;21188;-61
2020/12/08 14:29:37;;;;;;;28.47;12.67;;;;;;;-4.78;80.17;99406.98;1744952;82;21223;-58
2020/12/08 14:32:07;;;;;;;27.53;12.97;;;;;;;-4.76;80.35;99406.41;1744610;81;21256;-59
2020/12/08 14:34:37;;;;;;;28.70;12.63;;;;;;;-4.74;80.16;99407.98;1744773;81;21615;-63
2020/12/08 14:37:07;;;;;;;31.15;13.98;;;;;;;-4.74;80.01;99412.30;1766987;81;21150;-61
2020/12/08 14:39:37;;;;;;;32.17;13.97;;;;;;;-4.75;80.06;99419.66;1740441;81;21296;-61
2020/12/08 14:42:08;;;;;;;30.72;13.50;;;;;;;-4.74;80.29;99419.55;1733942;83;21204;-63
2020/12/08 14:44:37;;;;;;;27.63;14.17;;;;;;;-4.69;80.27;99421.37;1733662;83;21355;-62
2020/12/08 14:47:07;;;;;;;27.63;13.37;;;;;;;-4.68;80.07;99413.20;1733812;82;21142;-61
2020/12/08 14:49:37;;;;;;;32.43;14.83;;;;;;;-4.72;80.34;99420.27;1733512;81;21720;-64
2020/12/08 14:52:08;;;;;;;34.50;15.18;;;;;;;-4.74;80.25;99418.27;1732733;82;21348;-58
2020/12/08 14:54:38;;;;;;;34.00;15.85;;;;;;;-4.73;80.42;99422.95;1733585;83;21201;-61
2020/12/08 14:57:13;;;;;;;35.30;15.23;;;;;;;-4.76;80.66;99426.52;1732855;81;21316;-59
2020/12/08 14:59:45;;;;;;;27.10;12.37;;;;;;;-4.76;80.64;99432.95;1733359;81;21134;-58
